Blaine, Ohio
Current Conditions -  °F | °C
As of 11:53 AM on Wednesday 22 Oct 2014 (Local Time) from KHLG Reporting Station
Overcast Overcast  
Wind Chill: 42°   Ceiling: 1000
Heat Index: 47°   Visibility: 10mi
Dew Point: 43°   Wind: 12mph
Humidity: 86%   Direction: 340°NNW
Pressure: 30.18"   Gusts: 21mph
Location:  40.07°N, 80.82°W
Report Text: KHLG 221553Z 34010G18KT 10SM OVC010 08/06 A3018 RMK AO2 SLP228 T00830061
Loading
Personal Weather Stations






























Interactive Weather Map
Tropical Storm Tracking
New forecast layout! Learn more

10-Day Weather Forecast

Advertisements
Track Severe Weather on mobile